09:11
Airports
History
Links
Donate
Help keep this website running!
PayPal
Bitcoin
This page is community maintained. The information is intended for PC simulator navigation or reference.
Always use approved charts for navigation.
NC60
Brower Field
Brower Field (NC60)
High Point, North Carolina, United States (27263)
4
Lat/Lng:35° 53' 13.49" N / 80° 1' 58.15" W
35.887081 / -80.032819
Elevation:875'ft / 267mMSL
ID / ICAO:NC60
Runways:1
Longest:18-36
Grass 435m / 1,426ft
Nearby Weather08:54 GMT 2018-01-20
Nearby weather at KGSO, Piedmont Triad Intl located 15.7 nautical miles from NC60
Altimeter: 30.11
Visibility: 10.0 statute miles
Wind: 5 knots (from 250°)
Temp: -1°c / 30°f
Humidity: 63.6%

METAR: KGSO 200854Z 25005KT 10SM CLR M01/M07 A3011 RMK AO2 SLP199 T10111067 58003

(Powered by phpweather)
Nearby VORs <50NM
Nearby NDBs
Runway 18 / 36
Dimensions:434.5 x 12.2m 1426' x 40'ft
Surface:Grass
Runway 18 [A]Runway 36 [B]
Heading:173°TH 353°TH
Lat:
Lng:
35° 53' 20.37"N
80° 1' 59.04"W
35° 53' 6.62"N
80° 1' 57.26"W
User Notes and Comments
35° 53' 13.49" N / 80° 1' 58.15" W
Distance To
Airport ID:
Nearby Airports
(R) Darr Field 2.9 NM
NC03 ENE 59°
4 Johnson Field 6.7 NM
72A ESE 121°
(R) Quiet Acres 8.5 NM
NC31 S 176°
4 Delks 12.5 NM
1NC0 SSE 155°
(R) Spencer Field 13.0 NM
7NC9 SSE 148°
(C) Piedmont Triad Intl 15.7 NM
KGSO ( WX ) NNE 19°
4 Blevins - Private 15.9 NM
56W NNW 336°
VFR Chart
Flight Planning at SkyVector.com